sensor_id;sensor_type;location;lat;lon;timestamp;pressure;altitude;pressure_sealevel;temperature;humidity
39491;BME280;25175;50.140;18.990;2023-03-04T11:49:57;98261.31;;;0.68;60.74
39491;BME280;25175;50.140;18.990;2023-03-04T11:53:32;98262.81;;;0.78;60.69
39491;BME280;25175;50.140;18.990;2023-03-04T11:56:46;98274.41;;;0.74;60.90
39491;BME280;25175;50.140;18.990;2023-03-04T12:00:15;98267.47;;;0.75;60.91
39491;BME280;25175;50.140;18.990;2023-03-04T12:08:07;98259.19;;;0.89;60.66
39491;BME280;25175;50.140;18.990;2023-03-04T12:11:31;98252.09;;;0.91;60.28
39491;BME280;25175;50.140;18.990;2023-03-04T12:14:54;98257.91;;;0.93;60.41
39491;BME280;25175;50.140;18.990;2023-03-04T12:18:28;98257.25;;;0.91;60.09
39491;BME280;25175;50.140;18.990;2023-03-04T12:22:07;98252.31;;;0.97;60.63
39491;BME280;25175;50.140;18.990;2023-03-04T12:25:36;98255.41;;;1.09;60.66
39491;BME280;25175;50.140;18.990;2023-03-04T12:28:55;98247.03;;;1.07;59.92
39491;BME280;25175;50.140;18.990;2023-03-04T12:32:13;98258.56;;;1.20;59.81
39491;BME280;25175;50.140;18.990;2023-03-04T12:35:37;98224.13;;;1.20;59.51
39491;BME280;25175;50.140;18.990;2023-03-04T12:38:58;98230.97;;;1.29;59.15
39491;BME280;25175;50.140;18.990;2023-03-04T12:42:21;98235.50;;;1.35;59.32
39491;BME280;25175;50.140;18.990;2023-03-04T12:45:43;98227.00;;;1.42;59.09
39491;BME280;25175;50.140;18.990;2023-03-04T12:53:00;98226.41;;;1.56;58.54
39491;BME280;25175;50.140;18.990;2023-03-04T12:56:22;98228.34;;;1.62;58.29
39491;BME280;25175;50.140;18.990;2023-03-04T12:59:39;98212.19;;;1.60;58.01
39491;BME280;25175;50.140;18.990;2023-03-04T13:02:58;98209.16;;;1.73;57.86
39491;BME280;25175;50.140;18.990;2023-03-04T13:06:18;98206.25;;;1.76;57.47
39491;BME280;25175;50.140;18.990;2023-03-04T13:09:43;98180.88;;;1.71;57.19
39491;BME280;25175;50.140;18.990;2023-03-04T13:12:57;98185.88;;;1.81;57.33
39491;BME280;25175;50.140;18.990;2023-03-04T13:16:27;98192.66;;;1.82;57.33
39491;BME280;25175;50.140;18.990;2023-03-04T13:19:42;98201.09;;;1.84;57.21
39491;BME280;25175;50.140;18.990;2023-03-04T13:22:54;98195.91;;;1.84;57.20
39491;BME280;25175;50.140;18.990;2023-03-04T13:26:17;98201.72;;;1.86;57.29
39491;BME280;25175;50.140;18.990;2023-03-04T13:29:33;98195.28;;;1.90;57.31
39491;BME280;25175;50.140;18.990;2023-03-04T13:32:41;98197.38;;;1.94;57.14
39491;BME280;25175;50.140;18.990;2023-03-04T13:35:49;98184.63;;;2.01;57.18
39491;BME280;25175;50.140;18.990;2023-03-04T13:39:22;98196.41;;;2.03;56.75
39491;BME280;25175;50.140;18.990;2023-03-04T13:42:40;98188.31;;;2.06;56.97
39491;BME280;25175;50.140;18.990;2023-03-04T13:45:46;98186.41;;;2.08;56.77
39491;BME280;25175;50.140;18.990;2023-03-04T13:49:02;98180.09;;;2.11;56.64
39491;BME280;25175;50.140;18.990;2023-03-04T13:52:37;98178.97;;;2.13;56.83
39491;BME280;25175;50.140;18.990;2023-03-04T13:56:06;98184.94;;;2.14;56.27
39491;BME280;25175;50.140;18.990;2023-03-04T13:59:32;98183.63;;;2.18;56.35
39491;BME280;25175;50.140;18.990;2023-03-04T14:02:45;98166.81;;;2.14;56.52
39491;BME280;25175;50.140;18.990;2023-03-04T14:06:12;98178.28;;;2.27;55.95
39491;BME280;25175;50.140;18.990;2023-03-04T14:09:23;98172.81;;;2.30;55.66
39491;BME280;25175;50.140;18.990;2023-03-04T14:12:33;98151.94;;;2.24;55.40
39491;BME280;25175;50.140;18.990;2023-03-04T14:15:39;98175.88;;;2.34;55.03
39491;BME280;25175;50.140;18.990;2023-03-04T14:18:44;98170.06;;;2.32;54.95
39491;BME280;25175;50.140;18.990;2023-03-04T14:21:52;98158.09;;;2.23;54.94
39491;BME280;25175;50.140;18.990;2023-03-04T14:25:01;98175.22;;;2.32;54.79
39491;BME280;25175;50.140;18.990;2023-03-04T14:28:10;98165.03;;;2.30;54.71
39491;BME280;25175;50.140;18.990;2023-03-04T14:31:19;98028.41;;;1.38;54.23
39491;BME280;25175;50.140;18.990;2023-03-04T14:34:29;98149.38;;;2.16;54.23
39491;BME280;25175;50.140;18.990;2023-03-04T14:37:46;98167.16;;;2.27;54.27
39491;BME280;25175;50.140;18.990;2023-03-04T14:41:00;98182.69;;;2.27;54.21
39491;BME280;25175;50.140;18.990;2023-03-04T14:44:17;98181.69;;;2.28;54.26
39491;BME280;25175;50.140;18.990;2023-03-04T14:47:39;98172.31;;;2.27;54.11
39491;BME280;25175;50.140;18.990;2023-03-04T14:50:47;98173.28;;;2.26;54.17
39491;BME280;25175;50.140;18.990;2023-03-04T14:53:56;98184.28;;;2.28;53.99
39491;BME280;25175;50.140;18.990;2023-03-04T14:57:21;98180.09;;;2.27;53.75
39491;BME280;25175;50.140;18.990;2023-03-04T15:00:31;98179.41;;;2.25;53.71
39491;BME280;25175;50.140;18.990;2023-03-04T15:03:39;98219.38;;;2.22;53.71
39491;BME280;25175;50.140;18.990;2023-03-04T15:06:49;98179.41;;;2.25;53.90
39491;BME280;25175;50.140;18.990;2023-03-04T15:10:02;98165.69;;;2.24;53.90
39491;BME280;25175;50.140;18.990;2023-03-04T15:13:10;98165.03;;;2.22;53.73
39491;BME280;25175;50.140;18.990;2023-03-04T15:16:16;98169.56;;;2.20;54.04
39491;BME280;25175;50.140;18.990;2023-03-04T15:22:25;98145.44;;;2.20;54.06
39491;BME280;25175;50.140;18.990;2023-03-04T16:11:38;98150.63;;;2.20;53.62
39491;BME280;25175;50.140;18.990;2023-03-04T16:14:48;98137.69;;;2.20;53.75
39491;BME280;25175;50.140;18.990;2023-03-04T16:17:54;98111.53;;;1.99;53.74
39491;BME280;25175;50.140;18.990;2023-03-04T16:21:01;98110.72;;;1.74;53.97
39491;BME280;25175;50.140;18.990;2023-03-04T16:24:15;98142.72;;;2.05;54.05
39491;BME280;25175;50.140;18.990;2023-03-04T16:27:26;98148.72;;;2.06;54.24
39491;BME280;25175;50.140;18.990;2023-03-04T16:30:35;98147.09;;;2.05;54.26
39491;BME280;25175;50.140;18.990;2023-03-04T16:33:41;98140.28;;;2.04;54.35
39491;BME280;25175;50.140;18.990;2023-03-04T16:36:46;98113.00;;;1.85;54.32
39491;BME280;25175;50.140;18.990;2023-03-04T16:39:54;98146.44;;;2.03;54.39
39491;BME280;25175;50.140;18.990;2023-03-04T16:43:03;98140.63;;;2.01;54.33
39491;BME280;25175;50.140;18.990;2023-03-04T16:46:11;98155.19;;;2.02;54.50
39491;BME280;25175;50.140;18.990;2023-03-04T16:49:16;98166.34;;;2.02;54.44
39491;BME280;25175;50.140;18.990;2023-03-04T16:52:25;98164.41;;;2.04;54.50
39491;BME280;25175;50.140;18.990;2023-03-04T16:55:36;98162.28;;;2.08;54.51
39491;BME280;25175;50.140;18.990;2023-03-04T16:58:45;98142.91;;;1.72;54.50
39491;BME280;25175;50.140;18.990;2023-03-04T17:01:53;98164.22;;;2.14;54.39
39491;BME280;25175;50.140;18.990;2023-03-04T17:05:03;98159.72;;;2.16;54.48
39491;BME280;25175;50.140;18.990;2023-03-04T17:08:08;98071.75;;;1.60;54.11
39491;BME280;25175;50.140;18.990;2023-03-04T17:11:20;98158.06;;;2.15;54.17
39491;BME280;25175;50.140;18.990;2023-03-04T17:14:29;98130.09;;;1.94;54.14
39491;BME280;25175;50.140;18.990;2023-03-04T17:17:39;98167.31;;;2.09;54.21
39491;BME280;25175;50.140;18.990;2023-03-04T17:20:45;98150.31;;;2.07;54.35
39491;BME280;25175;50.140;18.990;2023-03-04T17:23:51;98155.81;;;2.04;54.54
39491;BME280;25175;50.140;18.990;2023-03-04T17:26:58;98140.47;;;1.94;54.62
39491;BME280;25175;50.140;18.990;2023-03-04T17:30:11;98160.50;;;2.00;54.58
39491;BME280;25175;50.140;18.990;2023-03-04T17:33:17;98148.53;;;1.99;54.64
39491;BME280;25175;50.140;18.990;2023-03-04T17:36:35;98156.47;;;1.98;54.63
39491;BME280;25175;50.140;18.990;2023-03-04T17:39:40;98147.88;;;1.89;54.92
39491;BME280;25175;50.140;18.990;2023-03-04T17:42:46;98160.50;;;2.00;54.81
39491;BME280;25175;50.140;18.990;2023-03-04T17:46:01;98165.69;;;2.00;54.95
39491;BME280;25175;50.140;18.990;2023-03-04T17:49:10;98163.91;;;2.01;54.96
39491;BME280;25175;50.140;18.990;2023-03-04T17:52:20;98148.72;;;1.90;55.01
39491;BME280;25175;50.140;18.990;2023-03-04T17:55:26;98167.81;;;2.05;55.34
39491;BME280;25175;50.140;18.990;2023-03-04T17:58:34;98167.63;;;2.06;54.92
39491;BME280;25175;50.140;18.990;2023-03-04T18:01:44;98167.81;;;2.05;55.22
39491;BME280;25175;50.140;18.990;2023-03-04T18:04:50;98170.22;;;2.06;55.05
39491;BME280;25175;50.140;18.990;2023-03-04T18:07:56;98165.69;;;2.08;55.29
39491;BME280;25175;50.140;18.990;2023-03-04T18:11:01;98156.97;;;2.01;55.32
39491;BME280;25175;50.140;18.990;2023-03-04T18:14:08;98166.03;;;2.13;55.18
39491;BME280;25175;50.140;18.990;2023-03-04T18:17:16;98170.38;;;2.13;55.27
39491;BME280;25175;50.140;18.990;2023-03-04T18:20:22;98161.00;;;2.12;55.42
39491;BME280;25175;50.140;18.990;2023-03-04T18:23:27;98172.81;;;2.14;55.57
39491;BME280;25175;50.140;18.990;2023-03-04T18:26:34;98171.69;;;2.17;55.60
39491;BME280;25175;50.140;18.990;2023-03-04T18:29:39;98168.09;;;2.18;55.41
39491;BME280;25175;50.140;18.990;2023-03-04T18:32:48;98173.75;;;2.21;55.61
39491;BME280;25175;50.140;18.990;2023-03-04T18:35:57;98148.69;;;2.14;55.74
39491;BME280;25175;50.140;18.990;2023-03-04T18:39:03;98151.94;;;2.16;55.36
39491;BME280;25175;50.140;18.990;2023-03-04T18:42:08;98161.63;;;2.30;55.44
39491;BME280;25175;50.140;18.990;2023-03-04T18:45:16;98165.81;;;2.31;55.57
39491;BME280;25175;50.140;18.990;2023-03-04T18:48:24;98167.13;;;2.35;55.61
39491;BME280;25175;50.140;18.990;2023-03-04T18:51:33;98160.81;;;2.37;55.54
39491;BME280;25175;50.140;18.990;2023-03-04T18:54:38;98166.00;;;2.37;55.59
39491;BME280;25175;50.140;18.990;2023-03-04T18:57:51;98149.66;;;2.29;55.63
39491;BME280;25175;50.140;18.990;2023-03-04T19:01:01;98175.06;;;2.41;55.76
39491;BME280;25175;50.140;18.990;2023-03-04T19:04:14;98177.97;;;2.38;55.77
39491;BME280;25175;50.140;18.990;2023-03-04T19:07:23;98159.84;;;2.38;55.86
39491;BME280;25175;50.140;18.990;2023-03-04T19:10:30;98179.56;;;2.39;55.97
39491;BME280;25175;50.140;18.990;2023-03-04T19:13:35;98163.91;;;2.33;56.03
39491;BME280;25175;50.140;18.990;2023-03-04T19:16:41;98166.31;;;2.42;56.15
39491;BME280;25175;50.140;18.990;2023-03-04T19:19:52;98170.34;;;2.45;56.23
39491;BME280;25175;50.140;18.990;2023-03-04T19:23:02;98169.22;;;2.47;56.31
39491;BME280;25175;50.140;18.990;2023-03-04T19:26:10;98170.00;;;2.48;56.38
39491;BME280;25175;50.140;18.990;2023-03-04T19:29:17;98168.09;;;2.50;56.25
39491;BME280;25175;50.140;18.990;2023-03-04T19:32:22;98145.44;;;2.44;56.25
39491;BME280;25175;50.140;18.990;2023-03-04T19:35:30;98149.94;;;2.42;56.60
39491;BME280;25175;50.140;18.990;2023-03-04T19:38:41;98139.78;;;2.32;56.66
39491;BME280;25175;50.140;18.990;2023-03-04T19:41:47;98165.34;;;2.51;56.47
39491;BME280;25175;50.140;18.990;2023-03-04T19:44:53;98165.50;;;2.50;56.54
39491;BME280;25175;50.140;18.990;2023-03-04T19:48:06;98179.22;;;2.50;56.78
39491;BME280;25175;50.140;18.990;2023-03-04T19:51:20;98167.09;;;2.51;56.62
39491;BME280;25175;50.140;18.990;2023-03-04T19:54:44;98162.91;;;2.42;56.81
39491;BME280;25175;50.140;18.990;2023-03-04T19:57:51;98153.56;;;2.17;56.96
39491;BME280;25175;50.140;18.990;2023-03-04T20:00:57;98165.16;;;2.53;57.24
39491;BME280;25175;50.140;18.990;2023-03-04T20:04:20;98033.97;;;1.67;57.70
39491;BME280;25175;50.140;18.990;2023-03-04T20:07:28;98168.41;;;2.55;57.90
39491;BME280;25175;50.140;18.990;2023-03-04T20:10:36;98158.50;;;2.50;58.25
39491;BME280;25175;50.140;18.990;2023-03-04T20:13:59;98177.63;;;2.17;58.75
39491;BME280;25175;50.140;18.990;2023-03-04T20:17:20;98182.59;;;2.59;59.04
39491;BME280;25175;50.140;18.990;2023-03-04T20:27:37;98172.88;;;2.69;59.89
39491;BME280;25175;50.140;18.990;2023-03-04T20:31:10;98178.72;;;2.71;60.08
39491;BME280;25175;50.140;18.990;2023-03-04T20:34:20;98216.44;;;2.73;60.28
39491;BME280;25175;50.140;18.990;2023-03-04T20:37:34;98192.94;;;2.75;60.31
39491;BME280;25175;50.140;18.990;2023-03-04T20:41:04;98169.31;;;2.78;60.33
39491;BME280;25175;50.140;18.990;2023-03-04T20:44:09;98162.34;;;2.78;59.90
39491;BME280;25175;50.140;18.990;2023-03-04T20:47:17;98159.56;;;2.80;60.11
39491;BME280;25175;50.140;18.990;2023-03-04T20:50:23;98166.09;;;2.76;59.95
39491;BME280;25175;50.140;18.990;2023-03-04T21:04:00;98175.81;;;2.66;59.37
39491;BME280;25175;50.140;18.990;2023-03-04T21:07:14;98119.47;;;2.68;59.73
39491;BME280;25175;50.140;18.990;2023-03-04T21:11:01;98154.38;;;2.88;59.47
39491;BME280;25175;50.140;18.990;2023-03-04T21:14:14;98170.41;;;2.91;59.49
39491;BME280;25175;50.140;18.990;2023-03-04T21:17:37;98144.66;;;2.90;59.50
39491;BME280;25175;50.140;18.990;2023-03-04T21:24:14;98152.72;;;2.95;59.50
39491;BME280;25175;50.140;18.990;2023-03-04T21:28:07;98152.72;;;2.95;59.69
39491;BME280;25175;50.140;18.990;2023-03-04T21:35:00;98154.03;;;2.99;59.51
39491;BME280;25175;50.140;18.990;2023-03-04T21:38:12;98151.72;;;3.04;59.58
39491;BME280;25175;50.140;18.990;2023-03-04T21:41:23;98152.38;;;3.06;59.38
39491;BME280;25175;50.140;18.990;2023-03-04T21:44:52;98145.72;;;3.11;59.32
39491;BME280;25175;50.140;18.990;2023-03-04T21:52:24;98153.94;;;3.15;59.68
39491;BME280;25175;50.140;18.990;2023-03-04T21:55:43;98165.19;;;2.99;58.91
39491;BME280;25175;50.140;18.990;2023-03-04T21:59:04;98175.00;;;2.73;58.69
39491;BME280;25175;50.140;18.990;2023-03-04T22:02:29;97795.63;;;0.13;59.01
39491;BME280;25175;50.140;18.990;2023-03-04T22:06:06;98176.19;;;2.31;59.40
39491;BME280;25175;50.140;18.990;2023-03-04T22:09:28;98147.41;;;1.86;59.62
39491;BME280;25175;50.140;18.990;2023-03-04T22:12:34;98170.72;;;1.94;59.89
39491;BME280;25175;50.140;18.990;2023-03-04T22:15:48;98146.13;;;1.74;60.48
39491;BME280;25175;50.140;18.990;2023-03-04T22:19:05;98072.81;;;1.17;60.69
39491;BME280;25175;50.140;18.990;2023-03-04T22:22:13;98160.31;;;1.70;61.21
39491;BME280;25175;50.140;18.990;2023-03-04T22:25:34;98158.88;;;1.67;61.29
39491;BME280;25175;50.140;18.990;2023-03-04T22:31:55;98172.47;;;1.69;61.63
39491;BME280;25175;50.140;18.990;2023-03-04T22:35:03;98125.91;;;1.53;61.85
39491;BME280;25175;50.140;18.990;2023-03-04T22:38:11;98161.31;;;1.77;61.35
39491;BME280;25175;50.140;18.990;2023-03-04T22:41:18;98147.25;;;1.71;61.15
39491;BME280;25175;50.140;18.990;2023-03-04T22:44:24;98160.84;;;1.81;60.91
39491;BME280;25175;50.140;18.990;2023-03-04T22:47:30;98150.16;;;1.68;60.94
39491;BME280;25175;50.140;18.990;2023-03-04T22:50:34;98165.19;;;1.81;60.98
39491;BME280;25175;50.140;18.990;2023-03-04T22:53:43;98166.00;;;1.81;60.68
39491;BME280;25175;50.140;18.990;2023-03-04T22:56:48;98165.03;;;1.82;60.99
39491;BME280;25175;50.140;18.990;2023-03-04T22:59:54;98107.63;;;1.47;60.89
39491;BME280;25175;50.140;18.990;2023-03-04T23:02:58;98158.72;;;1.85;60.96
39491;BME280;25175;50.140;18.990;2023-03-04T23:06:06;98167.31;;;1.85;60.93
39491;BME280;25175;50.140;18.990;2023-03-04T23:09:14;98169.72;;;1.87;60.93
39491;BME280;25175;50.140;18.990;2023-03-04T23:12:19;98176.19;;;1.91;60.78
39491;BME280;25175;50.140;18.990;2023-03-04T23:15:24;98187.03;;;1.94;60.69
39491;BME280;25175;50.140;18.990;2023-03-04T23:18:29;98187.50;;;1.98;60.58
39491;BME280;25175;50.140;18.990;2023-03-04T23:21:36;98190.44;;;2.03;60.34
39491;BME280;25175;50.140;18.990;2023-03-04T23:24:44;98177.97;;;2.06;60.23
39491;BME280;25175;50.140;18.990;2023-03-04T23:27:48;98191.72;;;2.07;60.59
39491;BME280;25175;50.140;18.990;2023-03-04T23:30:53;98190.59;;;2.09;60.49
39491;BME280;25175;50.140;18.990;2023-03-04T23:33:59;98189.47;;;2.12;60.41
39491;BME280;25175;50.140;18.990;2023-03-04T23:37:04;98192.88;;;2.12;60.42
39491;BME280;25175;50.140;18.990;2023-03-04T23:40:12;98189.78;;;2.09;60.56
39491;BME280;25175;50.140;18.990;2023-03-04T23:47:03;98195.59;;;2.03;60.77
39491;BME280;25175;50.140;18.990;2023-03-04T23:50:11;98193.00;;;2.03;60.88
39491;BME280;25175;50.140;18.990;2023-03-04T23:53:17;98198.84;;;2.05;60.73
39491;BME280;25175;50.140;18.990;2023-03-04T23:56:29;98198.50;;;2.08;60.34
39491;BME280;25175;50.140;18.990;2023-03-04T23:59:44;98198.50;;;2.08;60.14
